sensor_id;sensor_type;location;lat;lon;timestamp;P1;durP1;ratioP1;P2;durP2;ratioP2
9276;SDS011;4676;42.678;23.244;2023-05-07T00:00:20;9.53;;;7.00;;
9276;SDS011;4676;42.678;23.244;2023-05-07T00:02:47;8.77;;;6.10;;
9276;SDS011;4676;42.678;23.244;2023-05-07T00:05:14;6.73;;;6.23;;
9276;SDS011;4676;42.678;23.244;2023-05-07T00:07:41;6.43;;;5.93;;
9276;SDS011;4676;42.678;23.244;2023-05-07T00:10:09;5.93;;;5.53;;
9276;SDS011;4676;42.678;23.244;2023-05-07T00:12:37;6.07;;;5.57;;
9276;SDS011;4676;42.678;23.244;2023-05-07T00:15:04;6.13;;;5.73;;
9276;SDS011;4676;42.678;23.244;2023-05-07T00:17:32;7.50;;;6.77;;
9276;SDS011;4676;42.678;23.244;2023-05-07T00:19:59;7.80;;;6.07;;
9276;SDS011;4676;42.678;23.244;2023-05-07T00:22:26;8.67;;;6.73;;
9276;SDS011;4676;42.678;23.244;2023-05-07T00:24:55;8.93;;;6.10;;
9276;SDS011;4676;42.678;23.244;2023-05-07T00:27:23;7.10;;;6.23;;
9276;SDS011;4676;42.678;23.244;2023-05-07T00:29:50;6.83;;;6.30;;
9276;SDS011;4676;42.678;23.244;2023-05-07T00:32:17;6.80;;;6.17;;
9276;SDS011;4676;42.678;23.244;2023-05-07T00:34:44;6.67;;;6.17;;
9276;SDS011;4676;42.678;23.244;2023-05-07T00:37:11;7.03;;;6.33;;
9276;SDS011;4676;42.678;23.244;2023-05-07T00:39:38;8.20;;;6.10;;
9276;SDS011;4676;42.678;23.244;2023-05-07T00:42:04;6.20;;;5.77;;
9276;SDS011;4676;42.678;23.244;2023-05-07T00:44:32;6.87;;;6.27;;
9276;SDS011;4676;42.678;23.244;2023-05-07T00:46:59;6.00;;;5.60;;
9276;SDS011;4676;42.678;23.244;2023-05-07T00:49:30;6.87;;;6.37;;
9276;SDS011;4676;42.678;23.244;2023-05-07T00:52:03;7.00;;;6.33;;
9276;SDS011;4676;42.678;23.244;2023-05-07T00:54:31;9.50;;;6.20;;
9276;SDS011;4676;42.678;23.244;2023-05-07T00:56:59;6.50;;;6.00;;
9276;SDS011;4676;42.678;23.244;2023-05-07T00:59:26;6.83;;;6.27;;
9276;SDS011;4676;42.678;23.244;2023-05-07T01:01:55;7.20;;;6.70;;
9276;SDS011;4676;42.678;23.244;2023-05-07T01:04:21;6.83;;;6.30;;
9276;SDS011;4676;42.678;23.244;2023-05-07T01:06:48;7.53;;;7.03;;
9276;SDS011;4676;42.678;23.244;2023-05-07T01:09:16;7.73;;;6.43;;
9276;SDS011;4676;42.678;23.244;2023-05-07T01:11:43;7.37;;;6.63;;
9276;SDS011;4676;42.678;23.244;2023-05-07T01:14:10;7.37;;;6.77;;
9276;SDS011;4676;42.678;23.244;2023-05-07T01:16:37;7.10;;;6.50;;
9276;SDS011;4676;42.678;23.244;2023-05-07T01:19:08;7.43;;;6.80;;
9276;SDS011;4676;42.678;23.244;2023-05-07T01:21:36;9.93;;;6.30;;
9276;SDS011;4676;42.678;23.244;2023-05-07T01:24:06;7.43;;;6.83;;
9276;SDS011;4676;42.678;23.244;2023-05-07T01:26:33;7.30;;;6.70;;
9276;SDS011;4676;42.678;23.244;2023-05-07T01:28:59;7.20;;;6.60;;
9276;SDS011;4676;42.678;23.244;2023-05-07T01:31:26;7.47;;;6.90;;
9276;SDS011;4676;42.678;23.244;2023-05-07T01:33:53;7.80;;;7.13;;
9276;SDS011;4676;42.678;23.244;2023-05-07T01:36:21;7.77;;;7.07;;
9276;SDS011;4676;42.678;23.244;2023-05-07T01:38:51;7.30;;;6.77;;
9276;SDS011;4676;42.678;23.244;2023-05-07T01:41:20;7.53;;;7.03;;
9276;SDS011;4676;42.678;23.244;2023-05-07T01:43:48;7.40;;;6.90;;
9276;SDS011;4676;42.678;23.244;2023-05-07T01:46:16;11.07;;;6.70;;
9276;SDS011;4676;42.678;23.244;2023-05-07T01:48:44;11.73;;;7.33;;
9276;SDS011;4676;42.678;23.244;2023-05-07T01:51:11;7.87;;;7.17;;
9276;SDS011;4676;42.678;23.244;2023-05-07T01:53:38;8.53;;;6.60;;
9276;SDS011;4676;42.678;23.244;2023-05-07T01:56:06;7.23;;;6.73;;
9276;SDS011;4676;42.678;23.244;2023-05-07T01:58:34;7.70;;;7.00;;
9276;SDS011;4676;42.678;23.244;2023-05-07T02:01:01;9.67;;;8.67;;
9276;SDS011;4676;42.678;23.244;2023-05-07T02:03:28;9.17;;;7.80;;
9276;SDS011;4676;42.678;23.244;2023-05-07T02:05:54;8.80;;;8.00;;
9276;SDS011;4676;42.678;23.244;2023-05-07T02:08:21;8.50;;;7.73;;
9276;SDS011;4676;42.678;23.244;2023-05-07T02:10:48;12.37;;;8.33;;
9276;SDS011;4676;42.678;23.244;2023-05-07T02:13:14;8.93;;;8.03;;
9276;SDS011;4676;42.678;23.244;2023-05-07T02:15:43;8.47;;;7.03;;
9276;SDS011;4676;42.678;23.244;2023-05-07T02:18:12;8.20;;;7.50;;
9276;SDS011;4676;42.678;23.244;2023-05-07T02:20:38;8.43;;;7.57;;
9276;SDS011;4676;42.678;23.244;2023-05-07T02:23:05;7.60;;;7.00;;
9276;SDS011;4676;42.678;23.244;2023-05-07T02:25:32;10.27;;;7.63;;
9276;SDS011;4676;42.678;23.244;2023-05-07T02:27:58;9.80;;;8.50;;
9276;SDS011;4676;42.678;23.244;2023-05-07T02:30:25;8.77;;;7.97;;
9276;SDS011;4676;42.678;23.244;2023-05-07T02:32:53;8.57;;;7.87;;
9276;SDS011;4676;42.678;23.244;2023-05-07T02:35:20;10.50;;;8.43;;
9276;SDS011;4676;42.678;23.244;2023-05-07T02:37:47;20.50;;;11.80;;
9276;SDS011;4676;42.678;23.244;2023-05-07T02:40:13;11.77;;;10.57;;
9276;SDS011;4676;42.678;23.244;2023-05-07T02:42:40;17.67;;;12.13;;
9276;SDS011;4676;42.678;23.244;2023-05-07T02:45:07;21.23;;;11.83;;
9276;SDS011;4676;42.678;23.244;2023-05-07T02:47:35;17.63;;;10.43;;
9276;SDS011;4676;42.678;23.244;2023-05-07T02:50:03;13.80;;;9.97;;
9276;SDS011;4676;42.678;23.244;2023-05-07T02:52:31;17.83;;;9.73;;
9276;SDS011;4676;42.678;23.244;2023-05-07T02:54:57;9.67;;;8.67;;
9276;SDS011;4676;42.678;23.244;2023-05-07T02:57:24;16.33;;;8.27;;
9276;SDS011;4676;42.678;23.244;2023-05-07T02:59:51;10.80;;;9.10;;
9276;SDS011;4676;42.678;23.244;2023-05-07T03:02:17;20.13;;;9.20;;
9276;SDS011;4676;42.678;23.244;2023-05-07T03:04:45;10.73;;;9.73;;
9276;SDS011;4676;42.678;23.244;2023-05-07T03:07:13;9.93;;;8.47;;
9276;SDS011;4676;42.678;23.244;2023-05-07T03:09:39;9.63;;;8.73;;
9276;SDS011;4676;42.678;23.244;2023-05-07T03:12:06;8.83;;;8.00;;
9276;SDS011;4676;42.678;23.244;2023-05-07T03:14:33;9.27;;;8.30;;
9276;SDS011;4676;42.678;23.244;2023-05-07T03:17:00;10.23;;;9.23;;
9276;SDS011;4676;42.678;23.244;2023-05-07T03:19:27;20.93;;;8.80;;
9276;SDS011;4676;42.678;23.244;2023-05-07T03:21:55;13.07;;;10.20;;
9276;SDS011;4676;42.678;23.244;2023-05-07T03:24:23;11.30;;;9.53;;
9276;SDS011;4676;42.678;23.244;2023-05-07T03:26:50;10.73;;;9.37;;
9276;SDS011;4676;42.678;23.244;2023-05-07T03:29:17;11.37;;;9.00;;
9276;SDS011;4676;42.678;23.244;2023-05-07T03:31:43;10.50;;;9.47;;
9276;SDS011;4676;42.678;23.244;2023-05-07T03:34:10;10.37;;;8.93;;
9276;SDS011;4676;42.678;23.244;2023-05-07T03:36:37;10.00;;;9.00;;
9276;SDS011;4676;42.678;23.244;2023-05-07T03:39:03;11.93;;;9.43;;
9276;SDS011;4676;42.678;23.244;2023-05-07T03:44:07;11.83;;;8.97;;
9276;SDS011;4676;42.678;23.244;2023-05-07T03:46:34;13.40;;;9.00;;
9276;SDS011;4676;42.678;23.244;2023-05-07T03:49:01;12.37;;;8.90;;
9276;SDS011;4676;42.678;23.244;2023-05-07T03:51:27;11.27;;;10.10;;
9276;SDS011;4676;42.678;23.244;2023-05-07T03:53:54;14.40;;;11.43;;
9276;SDS011;4676;42.678;23.244;2023-05-07T03:56:22;14.07;;;11.27;;
9276;SDS011;4676;42.678;23.244;2023-05-07T03:58:51;11.67;;;10.40;;
9276;SDS011;4676;42.678;23.244;2023-05-07T04:01:19;12.97;;;11.47;;
9276;SDS011;4676;42.678;23.244;2023-05-07T04:03:46;15.80;;;11.03;;
9276;SDS011;4676;42.678;23.244;2023-05-07T04:06:12;14.23;;;10.93;;
9276;SDS011;4676;42.678;23.244;2023-05-07T04:08:39;15.27;;;10.97;;
9276;SDS011;4676;42.678;23.244;2023-05-07T04:11:06;12.30;;;9.77;;
9276;SDS011;4676;42.678;23.244;2023-05-07T04:13:33;12.40;;;9.10;;
9276;SDS011;4676;42.678;23.244;2023-05-07T04:16:00;10.13;;;8.80;;
9276;SDS011;4676;42.678;23.244;2023-05-07T04:18:29;12.23;;;8.87;;
9276;SDS011;4676;42.678;23.244;2023-05-07T04:20:56;13.43;;;10.87;;
9276;SDS011;4676;42.678;23.244;2023-05-07T04:23:23;9.43;;;8.50;;
9276;SDS011;4676;42.678;23.244;2023-05-07T04:25:50;10.43;;;9.33;;
9276;SDS011;4676;42.678;23.244;2023-05-07T04:28:16;11.67;;;9.93;;
9276;SDS011;4676;42.678;23.244;2023-05-07T04:30:43;9.07;;;8.37;;
9276;SDS011;4676;42.678;23.244;2023-05-07T04:33:10;9.90;;;8.90;;
9276;SDS011;4676;42.678;23.244;2023-05-07T04:35:38;14.07;;;8.20;;
9276;SDS011;4676;42.678;23.244;2023-05-07T04:38:04;10.07;;;7.47;;
9276;SDS011;4676;42.678;23.244;2023-05-07T04:40:31;8.97;;;7.60;;
9276;SDS011;4676;42.678;23.244;2023-05-07T04:42:58;7.40;;;6.80;;
9276;SDS011;4676;42.678;23.244;2023-05-07T04:45:24;8.97;;;8.10;;
9276;SDS011;4676;42.678;23.244;2023-05-07T04:47:51;8.27;;;7.47;;
9276;SDS011;4676;42.678;23.244;2023-05-07T04:50:18;9.87;;;8.10;;
9276;SDS011;4676;42.678;23.244;2023-05-07T04:52:46;8.67;;;7.97;;
9276;SDS011;4676;42.678;23.244;2023-05-07T04:55:13;8.10;;;7.50;;
9276;SDS011;4676;42.678;23.244;2023-05-07T04:57:39;8.07;;;7.33;;
9276;SDS011;4676;42.678;23.244;2023-05-07T05:00:07;13.47;;;8.37;;
9276;SDS011;4676;42.678;23.244;2023-05-07T05:02:35;8.37;;;7.57;;
9276;SDS011;4676;42.678;23.244;2023-05-07T05:05:02;8.27;;;7.47;;
9276;SDS011;4676;42.678;23.244;2023-05-07T05:07:29;9.00;;;8.17;;
9276;SDS011;4676;42.678;23.244;2023-05-07T05:09:57;8.67;;;7.77;;
9276;SDS011;4676;42.678;23.244;2023-05-07T05:12:23;8.87;;;8.13;;
9276;SDS011;4676;42.678;23.244;2023-05-07T05:14:50;13.87;;;8.73;;
9276;SDS011;4676;42.678;23.244;2023-05-07T05:17:17;8.53;;;7.80;;
9276;SDS011;4676;42.678;23.244;2023-05-07T05:19:44;8.83;;;7.87;;
9276;SDS011;4676;42.678;23.244;2023-05-07T05:22:10;10.57;;;9.57;;
9276;SDS011;4676;42.678;23.244;2023-05-07T05:24:37;11.30;;;10.07;;
9276;SDS011;4676;42.678;23.244;2023-05-07T05:27:05;9.23;;;8.07;;
9276;SDS011;4676;42.678;23.244;2023-05-07T05:29:32;9.57;;;8.53;;
9276;SDS011;4676;42.678;23.244;2023-05-07T05:31:58;20.03;;;13.83;;
9276;SDS011;4676;42.678;23.244;2023-05-07T05:34:25;9.50;;;8.60;;
9276;SDS011;4676;42.678;23.244;2023-05-07T05:36:52;8.80;;;7.90;;
9276;SDS011;4676;42.678;23.244;2023-05-07T05:39:19;9.57;;;8.23;;
9276;SDS011;4676;42.678;23.244;2023-05-07T05:41:46;8.23;;;7.50;;
9276;SDS011;4676;42.678;23.244;2023-05-07T05:44:14;7.67;;;6.97;;
9276;SDS011;4676;42.678;23.244;2023-05-07T05:46:41;7.70;;;7.00;;
9276;SDS011;4676;42.678;23.244;2023-05-07T05:49:08;10.33;;;7.60;;
9276;SDS011;4676;42.678;23.244;2023-05-07T05:51:34;7.57;;;6.70;;
9276;SDS011;4676;42.678;23.244;2023-05-07T05:54:01;11.03;;;8.40;;
9276;SDS011;4676;42.678;23.244;2023-05-07T05:56:28;11.07;;;8.33;;
9276;SDS011;4676;42.678;23.244;2023-05-07T05:58:55;7.93;;;7.30;;
9276;SDS011;4676;42.678;23.244;2023-05-07T06:01:23;7.80;;;7.10;;
9276;SDS011;4676;42.678;23.244;2023-05-07T06:03:50;8.03;;;7.33;;
9276;SDS011;4676;42.678;23.244;2023-05-07T06:06:16;11.77;;;8.60;;
9276;SDS011;4676;42.678;23.244;2023-05-07T06:08:43;12.73;;;7.03;;
9276;SDS011;4676;42.678;23.244;2023-05-07T06:11:10;8.07;;;7.27;;
9276;SDS011;4676;42.678;23.244;2023-05-07T06:13:37;8.83;;;8.03;;
9276;SDS011;4676;42.678;23.244;2023-05-07T06:16:04;8.57;;;7.70;;
9276;SDS011;4676;42.678;23.244;2023-05-07T06:18:32;7.73;;;7.13;;
9276;SDS011;4676;42.678;23.244;2023-05-07T06:21:01;7.33;;;6.57;;
9276;SDS011;4676;42.678;23.244;2023-05-07T06:23:27;9.27;;;7.17;;
9276;SDS011;4676;42.678;23.244;2023-05-07T06:25:54;7.03;;;6.30;;
9276;SDS011;4676;42.678;23.244;2023-05-07T06:28:21;7.90;;;6.67;;
9276;SDS011;4676;42.678;23.244;2023-05-07T06:30:47;7.83;;;7.23;;
9276;SDS011;4676;42.678;23.244;2023-05-07T06:33:15;7.27;;;6.67;;
9276;SDS011;4676;42.678;23.244;2023-05-07T06:35:43;7.30;;;6.30;;
9276;SDS011;4676;42.678;23.244;2023-05-07T06:38:10;8.40;;;7.30;;
9276;SDS011;4676;42.678;23.244;2023-05-07T06:40:37;7.87;;;7.17;;
9276;SDS011;4676;42.678;23.244;2023-05-07T06:43:04;7.17;;;6.47;;
9276;SDS011;4676;42.678;23.244;2023-05-07T06:45:30;7.40;;;6.80;;
9276;SDS011;4676;42.678;23.244;2023-05-07T06:47:57;8.93;;;6.50;;
9276;SDS011;4676;42.678;23.244;2023-05-07T06:50:24;6.87;;;6.33;;
9276;SDS011;4676;42.678;23.244;2023-05-07T06:52:52;7.03;;;6.43;;
9276;SDS011;4676;42.678;23.244;2023-05-07T06:55:18;8.07;;;7.33;;
9276;SDS011;4676;42.678;23.244;2023-05-07T06:57:45;7.43;;;6.27;;
9276;SDS011;4676;42.678;23.244;2023-05-07T07:00:12;8.97;;;5.83;;
9276;SDS011;4676;42.678;23.244;2023-05-07T07:02:40;8.40;;;7.00;;
9276;SDS011;4676;42.678;23.244;2023-05-07T07:05:07;7.07;;;6.47;;
9276;SDS011;4676;42.678;23.244;2023-05-07T07:07:34;6.70;;;6.07;;
9276;SDS011;4676;42.678;23.244;2023-05-07T07:10:02;7.13;;;6.53;;
9276;SDS011;4676;42.678;23.244;2023-05-07T07:12:29;7.70;;;5.87;;
9276;SDS011;4676;42.678;23.244;2023-05-07T07:14:56;7.17;;;6.43;;
9276;SDS011;4676;42.678;23.244;2023-05-07T07:17:23;5.37;;;5.07;;
9276;SDS011;4676;42.678;23.244;2023-05-07T07:19:49;7.30;;;6.07;;
9276;SDS011;4676;42.678;23.244;2023-05-07T07:22:16;10.17;;;6.40;;
9276;SDS011;4676;42.678;23.244;2023-05-07T07:24:43;7.17;;;6.63;;
9276;SDS011;4676;42.678;23.244;2023-05-07T07:27:11;7.10;;;6.40;;
9276;SDS011;4676;42.678;23.244;2023-05-07T07:29:38;6.50;;;5.90;;
9276;SDS011;4676;42.678;23.244;2023-05-07T07:32:04;6.07;;;5.60;;
9276;SDS011;4676;42.678;23.244;2023-05-07T07:34:31;6.17;;;5.70;;
9276;SDS011;4676;42.678;23.244;2023-05-07T07:36:58;5.80;;;5.40;;
9276;SDS011;4676;42.678;23.244;2023-05-07T07:39:30;5.20;;;4.93;;
9276;SDS011;4676;42.678;23.244;2023-05-07T07:41:57;6.30;;;5.73;;
9276;SDS011;4676;42.678;23.244;2023-05-07T07:44:25;5.27;;;4.80;;
9276;SDS011;4676;42.678;23.244;2023-05-07T07:46:52;5.30;;;4.90;;
9276;SDS011;4676;42.678;23.244;2023-05-07T07:49:18;6.37;;;5.80;;
9276;SDS011;4676;42.678;23.244;2023-05-07T07:51:45;6.53;;;5.93;;
9276;SDS011;4676;42.678;23.244;2023-05-07T07:54:12;7.13;;;6.27;;
9276;SDS011;4676;42.678;23.244;2023-05-07T07:56:38;7.23;;;6.63;;
9276;SDS011;4676;42.678;23.244;2023-05-07T07:59:05;6.53;;;6.13;;
9276;SDS011;4676;42.678;23.244;2023-05-07T08:01:33;7.00;;;6.23;;
9276;SDS011;4676;42.678;23.244;2023-05-07T08:04:00;5.37;;;4.70;;
9276;SDS011;4676;42.678;23.244;2023-05-07T08:06:28;5.87;;;5.10;;
9276;SDS011;4676;42.678;23.244;2023-05-07T08:08:55;5.97;;;5.47;;
9276;SDS011;4676;42.678;23.244;2023-05-07T08:11:21;4.90;;;4.60;;
9276;SDS011;4676;42.678;23.244;2023-05-07T08:13:48;5.30;;;4.90;;
9276;SDS011;4676;42.678;23.244;2023-05-07T08:16:15;6.33;;;5.00;;
9276;SDS011;4676;42.678;23.244;2023-05-07T08:18:43;5.97;;;5.37;;
9276;SDS011;4676;42.678;23.244;2023-05-07T08:21:10;7.10;;;5.57;;
9276;SDS011;4676;42.678;23.244;2023-05-07T08:23:37;7.13;;;5.60;;
9276;SDS011;4676;42.678;23.244;2023-05-07T08:26:03;5.97;;;5.57;;
9276;SDS011;4676;42.678;23.244;2023-05-07T08:28:30;5.40;;;5.10;;
9276;SDS011;4676;42.678;23.244;2023-05-07T08:30:57;5.10;;;4.70;;
9276;SDS011;4676;42.678;23.244;2023-05-07T08:33:25;6.43;;;5.90;;
9276;SDS011;4676;42.678;23.244;2023-05-07T08:35:53;7.10;;;5.00;;
9276;SDS011;4676;42.678;23.244;2023-05-07T08:38:20;7.17;;;4.90;;
9276;SDS011;4676;42.678;23.244;2023-05-07T08:40:47;5.73;;;5.33;;
9276;SDS011;4676;42.678;23.244;2023-05-07T08:43:13;5.10;;;4.80;;
9276;SDS011;4676;42.678;23.244;2023-05-07T08:45:40;6.80;;;6.30;;
9276;SDS011;4676;42.678;23.244;2023-05-07T08:48:08;5.80;;;5.40;;
9276;SDS011;4676;42.678;23.244;2023-05-07T08:50:40;6.97;;;6.33;;
9276;SDS011;4676;42.678;23.244;2023-05-07T08:53:08;7.57;;;6.90;;
9276;SDS011;4676;42.678;23.244;2023-05-07T08:55:35;7.30;;;6.70;;
9276;SDS011;4676;42.678;23.244;2023-05-07T08:58:03;6.70;;;5.27;;
9276;SDS011;4676;42.678;23.244;2023-05-07T09:00:30;6.70;;;6.07;;
9276;SDS011;4676;42.678;23.244;2023-05-07T09:02:56;6.40;;;5.90;;
9276;SDS011;4676;42.678;23.244;2023-05-07T09:05:23;4.97;;;4.57;;
9276;SDS011;4676;42.678;23.244;2023-05-07T09:07:50;5.47;;;5.17;;
9276;SDS011;4676;42.678;23.244;2023-05-07T09:10:18;5.00;;;4.70;;
9276;SDS011;4676;42.678;23.244;2023-05-07T09:12:46;5.03;;;4.63;;
9276;SDS011;4676;42.678;23.244;2023-05-07T09:15:13;6.77;;;6.17;;
9276;SDS011;4676;42.678;23.244;2023-05-07T09:17:39;5.77;;;5.27;;
9276;SDS011;4676;42.678;23.244;2023-05-07T09:20:07;6.10;;;5.60;;
9276;SDS011;4676;42.678;23.244;2023-05-07T09:22:35;5.83;;;5.47;;
9276;SDS011;4676;42.678;23.244;2023-05-07T09:25:03;5.77;;;4.70;;
9276;SDS011;4676;42.678;23.244;2023-05-07T09:27:32;5.50;;;5.00;;
9276;SDS011;4676;42.678;23.244;2023-05-07T09:29:58;5.97;;;5.47;;
9276;SDS011;4676;42.678;23.244;2023-05-07T09:32:25;5.10;;;4.40;;
9276;SDS011;4676;42.678;23.244;2023-05-07T09:34:52;10.63;;;3.50;;
9276;SDS011;4676;42.678;23.244;2023-05-07T09:37:19;5.70;;;4.30;;
9276;SDS011;4676;42.678;23.244;2023-05-07T09:39:48;4.53;;;3.87;;
9276;SDS011;4676;42.678;23.244;2023-05-07T09:42:16;4.37;;;3.30;;
9276;SDS011;4676;42.678;23.244;2023-05-07T09:44:50;4.27;;;3.70;;
9276;SDS011;4676;42.678;23.244;2023-05-07T09:47:18;3.93;;;3.73;;
9276;SDS011;4676;42.678;23.244;2023-05-07T09:49:47;3.53;;;3.37;;
9276;SDS011;4676;42.678;23.244;2023-05-07T09:52:14;3.63;;;3.43;;
9276;SDS011;4676;42.678;23.244;2023-05-07T09:54:42;4.77;;;4.03;;
9276;SDS011;4676;42.678;23.244;2023-05-07T09:57:10;3.73;;;3.53;;
9276;SDS011;4676;42.678;23.244;2023-05-07T09:59:37;3.40;;;3.20;;
9276;SDS011;4676;42.678;23.244;2023-05-07T10:02:06;3.10;;;2.90;;
9276;SDS011;4676;42.678;23.244;2023-05-07T10:04:35;3.70;;;3.50;;
9276;SDS011;4676;42.678;23.244;2023-05-07T10:07:02;4.07;;;3.77;;
9276;SDS011;4676;42.678;23.244;2023-05-07T10:09:30;3.90;;;3.60;;
9276;SDS011;4676;42.678;23.244;2023-05-07T10:11:57;3.90;;;3.60;;
9276;SDS011;4676;42.678;23.244;2023-05-07T10:14:25;3.13;;;3.00;;
9276;SDS011;4676;42.678;23.244;2023-05-07T10:16:54;6.43;;;3.20;;
9276;SDS011;4676;42.678;23.244;2023-05-07T10:19:22;4.80;;;3.67;;
9276;SDS011;4676;42.678;23.244;2023-05-07T10:21:51;3.17;;;2.97;;
9276;SDS011;4676;42.678;23.244;2023-05-07T10:24:23;3.67;;;2.93;;
9276;SDS011;4676;42.678;23.244;2023-05-07T10:26:52;2.60;;;2.40;;
9276;SDS011;4676;42.678;23.244;2023-05-07T10:29:21;2.93;;;2.83;;
9276;SDS011;4676;42.678;23.244;2023-05-07T10:35:02;3.70;;;3.27;;
9276;SDS011;4676;42.678;23.244;2023-05-07T10:37:32;3.43;;;3.07;;
9276;SDS011;4676;42.678;23.244;2023-05-07T10:40:00;3.37;;;2.90;;
9276;SDS011;4676;42.678;23.244;2023-05-07T10:42:27;3.27;;;3.07;;
9276;SDS011;4676;42.678;23.244;2023-05-07T10:44:54;2.90;;;2.80;;
9276;SDS011;4676;42.678;23.244;2023-05-07T10:47:21;5.10;;;3.40;;
9276;SDS011;4676;42.678;23.244;2023-05-07T11:01:59;3.10;;;3.00;;
9276;SDS011;4676;42.678;23.244;2023-05-07T11:04:28;3.60;;;3.40;;
9276;SDS011;4676;42.678;23.244;2023-05-07T11:09:56;3.23;;;3.07;;
9276;SDS011;4676;42.678;23.244;2023-05-07T11:15:37;4.23;;;2.90;;
9276;SDS011;4676;42.678;23.244;2023-05-07T11:18:05;3.23;;;3.07;;
9276;SDS011;4676;42.678;23.244;2023-05-07T11:26:26;3.23;;;3.03;;
9276;SDS011;4676;42.678;23.244;2023-05-07T11:28:54;5.07;;;2.77;;
9276;SDS011;4676;42.678;23.244;2023-05-07T11:31:22;3.27;;;3.00;;
9276;SDS011;4676;42.678;23.244;2023-05-07T11:33:51;3.50;;;3.30;;
9276;SDS011;4676;42.678;23.244;2023-05-07T11:36:18;3.47;;;3.17;;
9276;SDS011;4676;42.678;23.244;2023-05-07T11:38:46;3.40;;;3.20;;
9276;SDS011;4676;42.678;23.244;2023-05-07T11:41:15;3.27;;;3.07;;
9276;SDS011;4676;42.678;23.244;2023-05-07T11:43:54;3.23;;;3.03;;
9276;SDS011;4676;42.678;23.244;2023-05-07T11:46:22;3.23;;;3.07;;
9276;SDS011;4676;42.678;23.244;2023-05-07T11:48:48;4.03;;;3.10;;
9276;SDS011;4676;42.678;23.244;2023-05-07T11:51:18;3.20;;;3.00;;
9276;SDS011;4676;42.678;23.244;2023-05-07T11:53:46;3.50;;;3.30;;
9276;SDS011;4676;42.678;23.244;2023-05-07T11:56:14;3.73;;;3.20;;
9276;SDS011;4676;42.678;23.244;2023-05-07T11:58:42;2.77;;;2.67;;
9276;SDS011;4676;42.678;23.244;2023-05-07T12:01:10;3.73;;;3.00;;
9276;SDS011;4676;42.678;23.244;2023-05-07T12:03:39;3.07;;;2.83;;
9276;SDS011;4676;42.678;23.244;2023-05-07T12:06:08;3.10;;;2.87;;
9276;SDS011;4676;42.678;23.244;2023-05-07T12:08:36;3.30;;;3.10;;
9276;SDS011;4676;42.678;23.244;2023-05-07T12:11:03;3.07;;;2.73;;
9276;SDS011;4676;42.678;23.244;2023-05-07T12:13:35;2.97;;;2.77;;
9276;SDS011;4676;42.678;23.244;2023-05-07T12:16:02;3.70;;;3.50;;
9276;SDS011;4676;42.678;23.244;2023-05-07T12:18:31;3.50;;;3.20;;
9276;SDS011;4676;42.678;23.244;2023-05-07T12:20:59;2.80;;;2.70;;
9276;SDS011;4676;42.678;23.244;2023-05-07T12:23:26;3.17;;;2.87;;
9276;SDS011;4676;42.678;23.244;2023-05-07T12:25:53;3.30;;;3.10;;
9276;SDS011;4676;42.678;23.244;2023-05-07T12:28:19;2.80;;;2.40;;
9276;SDS011;4676;42.678;23.244;2023-05-07T12:30:48;2.57;;;2.43;;
9276;SDS011;4676;42.678;23.244;2023-05-07T12:33:16;2.40;;;2.30;;
9276;SDS011;4676;42.678;23.244;2023-05-07T12:35:46;2.70;;;2.50;;
9276;SDS011;4676;42.678;23.244;2023-05-07T12:38:15;3.43;;;2.93;;
9276;SDS011;4676;42.678;23.244;2023-05-07T12:40:44;3.13;;;2.97;;
9276;SDS011;4676;42.678;23.244;2023-05-07T12:43:15;2.73;;;2.53;;
9276;SDS011;4676;42.678;23.244;2023-05-07T12:45:48;3.63;;;3.00;;
9276;SDS011;4676;42.678;23.244;2023-05-07T12:48:16;2.90;;;2.70;;
9276;SDS011;4676;42.678;23.244;2023-05-07T12:50:43;2.73;;;2.63;;
9276;SDS011;4676;42.678;23.244;2023-05-07T12:53:11;2.40;;;2.30;;
9276;SDS011;4676;42.678;23.244;2023-05-07T12:55:42;3.00;;;2.80;;
9276;SDS011;4676;42.678;23.244;2023-05-07T12:58:14;2.80;;;2.60;;
9276;SDS011;4676;42.678;23.244;2023-05-07T13:00:43;2.70;;;2.50;;
9276;SDS011;4676;42.678;23.244;2023-05-07T13:03:11;2.37;;;2.27;;
9276;SDS011;4676;42.678;23.244;2023-05-07T13:05:38;2.57;;;2.37;;
9276;SDS011;4676;42.678;23.244;2023-05-07T13:08:05;2.47;;;2.37;;
9276;SDS011;4676;42.678;23.244;2023-05-07T13:10:34;5.33;;;2.33;;
9276;SDS011;4676;42.678;23.244;2023-05-07T13:13:01;3.30;;;3.00;;
9276;SDS011;4676;42.678;23.244;2023-05-07T13:15:28;2.40;;;2.30;;
9276;SDS011;4676;42.678;23.244;2023-05-07T13:17:54;5.57;;;2.47;;
9276;SDS011;4676;42.678;23.244;2023-05-07T13:20:23;2.73;;;2.53;;
9276;SDS011;4676;42.678;23.244;2023-05-07T13:22:49;3.00;;;2.23;;
9276;SDS011;4676;42.678;23.244;2023-05-07T13:25:16;2.43;;;2.33;;
9276;SDS011;4676;42.678;23.244;2023-05-07T13:27:43;3.77;;;3.30;;
9276;SDS011;4676;42.678;23.244;2023-05-07T13:30:10;2.40;;;2.30;;
9276;SDS011;4676;42.678;23.244;2023-05-07T13:32:37;3.00;;;2.60;;
9276;SDS011;4676;42.678;23.244;2023-05-07T13:35:04;5.67;;;3.30;;
9276;SDS011;4676;42.678;23.244;2023-05-07T13:37:32;4.33;;;4.03;;
9276;SDS011;4676;42.678;23.244;2023-05-07T13:39:59;3.17;;;2.97;;
9276;SDS011;4676;42.678;23.244;2023-05-07T13:42:26;4.17;;;2.50;;
9276;SDS011;4676;42.678;23.244;2023-05-07T13:44:52;2.60;;;2.50;;
9276;SDS011;4676;42.678;23.244;2023-05-07T13:47:19;4.53;;;2.60;;
9276;SDS011;4676;42.678;23.244;2023-05-07T13:49:46;2.40;;;2.30;;
9276;SDS011;4676;42.678;23.244;2023-05-07T13:52:14;2.30;;;2.10;;
9276;SDS011;4676;42.678;23.244;2023-05-07T13:54:42;2.80;;;2.60;;
9276;SDS011;4676;42.678;23.244;2023-05-07T13:57:09;2.87;;;2.60;;
9276;SDS011;4676;42.678;23.244;2023-05-07T13:59:36;3.17;;;2.97;;
9276;SDS011;4676;42.678;23.244;2023-05-07T14:02:02;2.83;;;2.73;;
9276;SDS011;4676;42.678;23.244;2023-05-07T14:04:30;2.30;;;2.20;;
9276;SDS011;4676;42.678;23.244;2023-05-07T14:06:56;2.73;;;2.53;;
9276;SDS011;4676;42.678;23.244;2023-05-07T14:09:23;2.70;;;2.50;;
9276;SDS011;4676;42.678;23.244;2023-05-07T14:11:51;3.00;;;2.70;;
9276;SDS011;4676;42.678;23.244;2023-05-07T14:14:18;2.70;;;2.60;;
9276;SDS011;4676;42.678;23.244;2023-05-07T14:16:45;3.63;;;2.43;;
9276;SDS011;4676;42.678;23.244;2023-05-07T14:19:11;2.77;;;2.67;;
9276;SDS011;4676;42.678;23.244;2023-05-07T14:21:38;2.53;;;2.33;;
9276;SDS011;4676;42.678;23.244;2023-05-07T14:24:06;2.57;;;2.27;;
9276;SDS011;4676;42.678;23.244;2023-05-07T14:26:33;2.30;;;2.20;;
9276;SDS011;4676;42.678;23.244;2023-05-07T14:29:01;3.00;;;2.73;;
9276;SDS011;4676;42.678;23.244;2023-05-07T14:31:28;2.40;;;2.30;;
9276;SDS011;4676;42.678;23.244;2023-05-07T14:33:55;2.30;;;2.17;;
9276;SDS011;4676;42.678;23.244;2023-05-07T14:36:23;3.70;;;2.80;;
9276;SDS011;4676;42.678;23.244;2023-05-07T14:38:51;2.13;;;2.03;;
9276;SDS011;4676;42.678;23.244;2023-05-07T14:41:18;2.50;;;2.40;;
9276;SDS011;4676;42.678;23.244;2023-05-07T14:43:45;2.90;;;2.70;;
9276;SDS011;4676;42.678;23.244;2023-05-07T14:46:16;2.80;;;2.60;;
9276;SDS011;4676;42.678;23.244;2023-05-07T14:48:43;2.60;;;2.50;;
9276;SDS011;4676;42.678;23.244;2023-05-07T14:51:11;5.67;;;2.93;;
9276;SDS011;4676;42.678;23.244;2023-05-07T14:53:38;2.40;;;2.30;;
9276;SDS011;4676;42.678;23.244;2023-05-07T14:56:05;2.50;;;2.30;;
9276;SDS011;4676;42.678;23.244;2023-05-07T14:58:32;2.60;;;2.50;;
9276;SDS011;4676;42.678;23.244;2023-05-07T15:00:59;2.93;;;2.70;;
9276;SDS011;4676;42.678;23.244;2023-05-07T15:03:28;2.37;;;2.27;;
9276;SDS011;4676;42.678;23.244;2023-05-07T15:05:55;2.70;;;2.60;;
9276;SDS011;4676;42.678;23.244;2023-05-07T15:08:21;2.57;;;2.40;;
9276;SDS011;4676;42.678;23.244;2023-05-07T15:10:48;3.10;;;2.20;;
9276;SDS011;4676;42.678;23.244;2023-05-07T15:13:15;2.20;;;2.07;;
9276;SDS011;4676;42.678;23.244;2023-05-07T15:15:42;2.93;;;2.33;;
9276;SDS011;4676;42.678;23.244;2023-05-07T15:18:09;5.50;;;2.23;;
9276;SDS011;4676;42.678;23.244;2023-05-07T15:20:37;3.07;;;2.30;;
9276;SDS011;4676;42.678;23.244;2023-05-07T15:23:05;3.23;;;2.20;;
9276;SDS011;4676;42.678;23.244;2023-05-07T15:25:34;3.30;;;2.10;;
9276;SDS011;4676;42.678;23.244;2023-05-07T15:28:01;2.40;;;2.30;;